sensor_id;sensor_type;location;lat;lon;timestamp;temperature;humidity
17146;DHT22;8688;54.444;18.444;2023-04-06T00:01:19;-1.30;99.90
17146;DHT22;8688;54.444;18.444;2023-04-06T00:03:46;-1.30;99.90
17146;DHT22;8688;54.444;18.444;2023-04-06T00:06:15;-1.30;99.90
17146;DHT22;8688;54.444;18.444;2023-04-06T00:08:43;-1.40;99.90
17146;DHT22;8688;54.444;18.444;2023-04-06T00:11:10;-1.40;99.90
17146;DHT22;8688;54.444;18.444;2023-04-06T00:13:38;-1.40;1.00
17146;DHT22;8688;54.444;18.444;2023-04-06T00:16:06;-1.40;42.80
17146;DHT22;8688;54.444;18.444;2023-04-06T00:18:33;-1.40;99.90
17146;DHT22;8688;54.444;18.444;2023-04-06T00:21:01;-1.30;1.00
17146;DHT22;8688;54.444;18.444;2023-04-06T00:23:30;-1.40;1.00
17146;DHT22;8688;54.444;18.444;2023-04-06T00:25:57;-1.40;1.00
17146;DHT22;8688;54.444;18.444;2023-04-06T00:28:24;-1.40;99.90
17146;DHT22;8688;54.444;18.444;2023-04-06T00:30:52;-1.40;39.10
17146;DHT22;8688;54.444;18.444;2023-04-06T00:33:21;-1.40;99.90
17146;DHT22;8688;54.444;18.444;2023-04-06T00:35:49;-1.40;95.00
17146;DHT22;8688;54.444;18.444;2023-04-06T00:38:16;-1.40;99.90
17146;DHT22;8688;54.444;18.444;2023-04-06T00:40:45;-1.50;99.90
17146;DHT22;8688;54.444;18.444;2023-04-06T00:43:13;-1.50;99.90
17146;DHT22;8688;54.444;18.444;2023-04-06T00:45:41;-1.50;1.00
17146;DHT22;8688;54.444;18.444;2023-04-06T00:48:09;-1.50;1.00
17146;DHT22;8688;54.444;18.444;2023-04-06T00:50:36;-1.50;1.00
17146;DHT22;8688;54.444;18.444;2023-04-06T00:53:04;-1.50;1.00
17146;DHT22;8688;54.444;18.444;2023-04-06T00:55:31;-1.50;99.90
17146;DHT22;8688;54.444;18.444;2023-04-06T00:58:01;-1.50;99.90
17146;DHT22;8688;54.444;18.444;2023-04-06T01:00:29;-1.50;99.90
17146;DHT22;8688;54.444;18.444;2023-04-06T01:02:57;-1.60;99.90
17146;DHT22;8688;54.444;18.444;2023-04-06T01:05:24;-1.60;1.00
17146;DHT22;8688;54.444;18.444;2023-04-06T01:07:52;-1.70;1.00
17146;DHT22;8688;54.444;18.444;2023-04-06T01:10:26;-1.60;99.90
17146;DHT22;8688;54.444;18.444;2023-04-06T01:12:53;-1.70;99.90
17146;DHT22;8688;54.444;18.444;2023-04-06T01:15:24;-1.70;1.00
17146;DHT22;8688;54.444;18.444;2023-04-06T01:17:51;-1.70;1.00
17146;DHT22;8688;54.444;18.444;2023-04-06T01:20:19;-1.80;1.00
17146;DHT22;8688;54.444;18.444;2023-04-06T01:22:48;-1.80;1.00
17146;DHT22;8688;54.444;18.444;2023-04-06T01:25:15;-1.80;1.00
17146;DHT22;8688;54.444;18.444;2023-04-06T01:27:43;-1.90;1.00
17146;DHT22;8688;54.444;18.444;2023-04-06T01:30:11;-1.90;1.00
17146;DHT22;8688;54.444;18.444;2023-04-06T01:32:38;-1.90;99.90
17146;DHT22;8688;54.444;18.444;2023-04-06T01:35:06;-2.00;99.90
17146;DHT22;8688;54.444;18.444;2023-04-06T01:37:34;-2.00;99.90
17146;DHT22;8688;54.444;18.444;2023-04-06T01:40:03;-2.10;1.00
17146;DHT22;8688;54.444;18.444;2023-04-06T01:42:31;-2.10;99.90
17146;DHT22;8688;54.444;18.444;2023-04-06T01:44:58;-2.00;1.00
17146;DHT22;8688;54.444;18.444;2023-04-06T01:47:26;-2.10;1.00
17146;DHT22;8688;54.444;18.444;2023-04-06T01:49:53;-2.10;99.90
17146;DHT22;8688;54.444;18.444;2023-04-06T01:52:21;-2.10;99.90
17146;DHT22;8688;54.444;18.444;2023-04-06T01:54:48;-2.10;1.00
17146;DHT22;8688;54.444;18.444;2023-04-06T01:57:17;-2.10;1.00
17146;DHT22;8688;54.444;18.444;2023-04-06T01:59:45;-2.10;99.90
17146;DHT22;8688;54.444;18.444;2023-04-06T02:02:13;-2.10;2.40
17146;DHT22;8688;54.444;18.444;2023-04-06T02:04:40;-2.10;1.00
17146;DHT22;8688;54.444;18.444;2023-04-06T02:07:08;-2.10;1.00
17146;DHT22;8688;54.444;18.444;2023-04-06T02:09:36;-2.20;1.00
17146;DHT22;8688;54.444;18.444;2023-04-06T02:12:03;-2.20;1.00
17146;DHT22;8688;54.444;18.444;2023-04-06T02:14:33;-2.20;1.00
17146;DHT22;8688;54.444;18.444;2023-04-06T02:17:00;-2.20;1.00
17146;DHT22;8688;54.444;18.444;2023-04-06T02:19:28;-2.30;1.00
17146;DHT22;8688;54.444;18.444;2023-04-06T02:21:55;-2.30;1.00
17146;DHT22;8688;54.444;18.444;2023-04-06T02:24:22;-2.30;1.00
17146;DHT22;8688;54.444;18.444;2023-04-06T02:26:50;-2.30;1.00
17146;DHT22;8688;54.444;18.444;2023-04-06T02:29:17;-2.30;99.90
17146;DHT22;8688;54.444;18.444;2023-04-06T02:31:47;-2.30;99.90
17146;DHT22;8688;54.444;18.444;2023-04-06T02:34:14;-2.30;99.90
17146;DHT22;8688;54.444;18.444;2023-04-06T02:36:43;-2.40;99.90
17146;DHT22;8688;54.444;18.444;2023-04-06T02:39:11;-2.40;30.00
17146;DHT22;8688;54.444;18.444;2023-04-06T02:41:39;-2.40;5.00
17146;DHT22;8688;54.444;18.444;2023-04-06T02:44:08;-2.50;99.90
17146;DHT22;8688;54.444;18.444;2023-04-06T02:46:35;-2.50;1.00
17146;DHT22;8688;54.444;18.444;2023-04-06T02:49:04;-2.50;1.00
17146;DHT22;8688;54.444;18.444;2023-04-06T02:51:32;-2.40;99.90
17146;DHT22;8688;54.444;18.444;2023-04-06T02:54:00;-2.40;98.70
17146;DHT22;8688;54.444;18.444;2023-04-06T02:56:27;-2.30;1.00
17146;DHT22;8688;54.444;18.444;2023-04-06T02:58:54;-2.30;1.00
17146;DHT22;8688;54.444;18.444;2023-04-06T03:01:22;-2.30;99.90
17146;DHT22;8688;54.444;18.444;2023-04-06T03:03:49;-2.30;1.00
17146;DHT22;8688;54.444;18.444;2023-04-06T03:06:18;-2.30;1.00
17146;DHT22;8688;54.444;18.444;2023-04-06T03:08:45;-2.30;1.00
17146;DHT22;8688;54.444;18.444;2023-04-06T03:11:13;-2.40;99.90
17146;DHT22;8688;54.444;18.444;2023-04-06T03:13:40;-2.40;1.00
17146;DHT22;8688;54.444;18.444;2023-04-06T03:16:08;-2.50;1.00
17146;DHT22;8688;54.444;18.444;2023-04-06T03:18:35;-2.60;1.00
17146;DHT22;8688;54.444;18.444;2023-04-06T03:21:02;-2.60;1.00
17146;DHT22;8688;54.444;18.444;2023-04-06T03:23:31;-2.70;1.00
17146;DHT22;8688;54.444;18.444;2023-04-06T03:26:00;-2.70;99.90
17146;DHT22;8688;54.444;18.444;2023-04-06T03:28:27;-2.70;99.90
17146;DHT22;8688;54.444;18.444;2023-04-06T03:30:54;-2.70;99.90
17146;DHT22;8688;54.444;18.444;2023-04-06T03:33:22;-2.60;1.00
17146;DHT22;8688;54.444;18.444;2023-04-06T03:35:49;-2.70;1.00
17146;DHT22;8688;54.444;18.444;2023-04-06T03:38:16;-2.70;1.00
17146;DHT22;8688;54.444;18.444;2023-04-06T03:40:45;-2.80;1.00
17146;DHT22;8688;54.444;18.444;2023-04-06T03:43:12;-2.80;1.00
17146;DHT22;8688;54.444;18.444;2023-04-06T03:45:40;-2.90;1.00
17146;DHT22;8688;54.444;18.444;2023-04-06T03:48:07;-2.80;1.00
17146;DHT22;8688;54.444;18.444;2023-04-06T03:50:34;-2.80;1.00
17146;DHT22;8688;54.444;18.444;2023-04-06T03:53:02;-2.80;1.00
17146;DHT22;8688;54.444;18.444;2023-04-06T03:55:29;-2.80;1.00
17146;DHT22;8688;54.444;18.444;2023-04-06T03:57:58;-2.80;1.00
17146;DHT22;8688;54.444;18.444;2023-04-06T04:00:26;-2.80;1.00
17146;DHT22;8688;54.444;18.444;2023-04-06T04:02:53;-2.80;1.00
17146;DHT22;8688;54.444;18.444;2023-04-06T04:05:21;-2.80;1.00
17146;DHT22;8688;54.444;18.444;2023-04-06T04:07:51;-2.80;1.00
17146;DHT22;8688;54.444;18.444;2023-04-06T04:10:18;-2.80;1.00
17146;DHT22;8688;54.444;18.444;2023-04-06T04:12:46;-2.90;1.00
17146;DHT22;8688;54.444;18.444;2023-04-06T04:15:15;-2.90;1.00
17146;DHT22;8688;54.444;18.444;2023-04-06T04:17:42;-2.80;1.00
17146;DHT22;8688;54.444;18.444;2023-04-06T04:20:12;-2.80;99.90
17146;DHT22;8688;54.444;18.444;2023-04-06T04:22:40;-2.90;99.90
17146;DHT22;8688;54.444;18.444;2023-04-06T04:25:08;-2.90;99.90
17146;DHT22;8688;54.444;18.444;2023-04-06T04:27:36;-2.90;99.90
17146;DHT22;8688;54.444;18.444;2023-04-06T04:30:04;-2.80;1.00
17146;DHT22;8688;54.444;18.444;2023-04-06T04:32:33;-2.70;99.90
17146;DHT22;8688;54.444;18.444;2023-04-06T04:35:01;-2.70;1.00
17146;DHT22;8688;54.444;18.444;2023-04-06T04:37:28;-2.70;99.90
17146;DHT22;8688;54.444;18.444;2023-04-06T04:39:56;-2.70;99.90
17146;DHT22;8688;54.444;18.444;2023-04-06T04:42:23;-2.60;49.40
17146;DHT22;8688;54.444;18.444;2023-04-06T04:44:51;-2.60;1.00
17146;DHT22;8688;54.444;18.444;2023-04-06T04:47:18;-2.70;1.00
17146;DHT22;8688;54.444;18.444;2023-04-06T04:49:47;-2.80;1.00
17146;DHT22;8688;54.444;18.444;2023-04-06T04:52:15;-2.80;1.00
17146;DHT22;8688;54.444;18.444;2023-04-06T04:54:42;-2.80;1.00
17146;DHT22;8688;54.444;18.444;2023-04-06T04:57:10;-2.60;26.30
17146;DHT22;8688;54.444;18.444;2023-04-06T04:59:37;-2.60;1.00
17146;DHT22;8688;54.444;18.444;2023-04-06T05:02:05;-2.50;99.90
17146;DHT22;8688;54.444;18.444;2023-04-06T05:04:32;-2.40;1.00
17146;DHT22;8688;54.444;18.444;2023-04-06T05:07:05;-2.30;99.90
17146;DHT22;8688;54.444;18.444;2023-04-06T05:09:33;-2.30;1.00
17146;DHT22;8688;54.444;18.444;2023-04-06T05:12:00;-2.20;99.90
17146;DHT22;8688;54.444;18.444;2023-04-06T05:14:28;-2.20;85.30
17146;DHT22;8688;54.444;18.444;2023-04-06T05:16:56;-2.10;1.00
17146;DHT22;8688;54.444;18.444;2023-04-06T05:19:23;-2.10;1.00
17146;DHT22;8688;54.444;18.444;2023-04-06T05:21:50;-2.00;1.00
17146;DHT22;8688;54.444;18.444;2023-04-06T05:24:19;-2.00;99.90
17146;DHT22;8688;54.444;18.444;2023-04-06T05:26:47;-1.90;99.90
17146;DHT22;8688;54.444;18.444;2023-04-06T05:29:15;-1.90;1.00
17146;DHT22;8688;54.444;18.444;2023-04-06T05:31:42;-1.80;1.00
17146;DHT22;8688;54.444;18.444;2023-04-06T05:34:10;-1.70;1.00
17146;DHT22;8688;54.444;18.444;2023-04-06T05:36:38;-1.70;1.00
17146;DHT22;8688;54.444;18.444;2023-04-06T05:39:06;-1.60;1.00
17146;DHT22;8688;54.444;18.444;2023-04-06T05:41:35;-1.60;1.00
17146;DHT22;8688;54.444;18.444;2023-04-06T05:44:02;-1.50;1.00
17146;DHT22;8688;54.444;18.444;2023-04-06T05:46:30;-1.40;1.00
17146;DHT22;8688;54.444;18.444;2023-04-06T05:48:57;-1.40;1.00
17146;DHT22;8688;54.444;18.444;2023-04-06T05:51:25;-1.30;1.00
17146;DHT22;8688;54.444;18.444;2023-04-06T05:53:53;-1.20;1.00
17146;DHT22;8688;54.444;18.444;2023-04-06T05:56:20;-1.10;1.00
17146;DHT22;8688;54.444;18.444;2023-04-06T05:58:49;-1.10;1.00
17146;DHT22;8688;54.444;18.444;2023-04-06T06:01:17;-1.00;1.00
17146;DHT22;8688;54.444;18.444;2023-04-06T06:03:44;-0.80;5.60
17146;DHT22;8688;54.444;18.444;2023-04-06T06:06:11;-0.80;1.00
17146;DHT22;8688;54.444;18.444;2023-04-06T06:08:39;-0.70;1.00
17146;DHT22;8688;54.444;18.444;2023-04-06T06:11:07;-0.60;1.00
17146;DHT22;8688;54.444;18.444;2023-04-06T06:13:34;-0.50;1.00
17146;DHT22;8688;54.444;18.444;2023-04-06T06:16:03;-0.50;1.00
17146;DHT22;8688;54.444;18.444;2023-04-06T06:18:31;-0.40;1.00
17146;DHT22;8688;54.444;18.444;2023-04-06T06:20:59;-0.30;1.00
17146;DHT22;8688;54.444;18.444;2023-04-06T06:23:26;-0.10;1.00
17146;DHT22;8688;54.444;18.444;2023-04-06T06:25:53;-0.10;1.00
17146;DHT22;8688;54.444;18.444;2023-04-06T06:28:23;0.00;1.00
17146;DHT22;8688;54.444;18.444;2023-04-06T06:30:52;0.10;1.00
17146;DHT22;8688;54.444;18.444;2023-04-06T06:33:20;0.20;1.00
17146;DHT22;8688;54.444;18.444;2023-04-06T06:35:48;0.40;1.00
17146;DHT22;8688;54.444;18.444;2023-04-06T06:38:16;0.70;1.00
17146;DHT22;8688;54.444;18.444;2023-04-06T06:40:45;0.90;99.90
17146;DHT22;8688;54.444;18.444;2023-04-06T06:43:13;1.00;99.90
17146;DHT22;8688;54.444;18.444;2023-04-06T06:45:52;1.20;99.90
17146;DHT22;8688;54.444;18.444;2023-04-06T06:48:21;1.40;95.40
17146;DHT22;8688;54.444;18.444;2023-04-06T06:50:58;1.40;1.00
17146;DHT22;8688;54.444;18.444;2023-04-06T06:53:28;1.50;1.00
17146;DHT22;8688;54.444;18.444;2023-04-06T06:55:55;1.50;1.00
17146;DHT22;8688;54.444;18.444;2023-04-06T06:58:22;1.60;1.00
17146;DHT22;8688;54.444;18.444;2023-04-06T07:00:49;1.70;1.00
17146;DHT22;8688;54.444;18.444;2023-04-06T07:03:18;1.80;1.00
17146;DHT22;8688;54.444;18.444;2023-04-06T07:05:47;1.90;1.00
17146;DHT22;8688;54.444;18.444;2023-04-06T07:08:37;2.00;1.00
17146;DHT22;8688;54.444;18.444;2023-04-06T07:11:14;2.20;1.00
17146;DHT22;8688;54.444;18.444;2023-04-06T07:14:05;2.30;1.00
17146;DHT22;8688;54.444;18.444;2023-04-06T07:16:50;2.50;1.00
17146;DHT22;8688;54.444;18.444;2023-04-06T07:19:17;2.70;1.00
17146;DHT22;8688;54.444;18.444;2023-04-06T07:21:47;2.90;1.00
17146;DHT22;8688;54.444;18.444;2023-04-06T07:24:15;2.90;1.00
17146;DHT22;8688;54.444;18.444;2023-04-06T07:26:42;2.90;1.00
17146;DHT22;8688;54.444;18.444;2023-04-06T07:29:09;2.80;1.00
17146;DHT22;8688;54.444;18.444;2023-04-06T07:31:53;2.70;1.00
17146;DHT22;8688;54.444;18.444;2023-04-06T07:40:51;3.00;99.90
17146;DHT22;8688;54.444;18.444;2023-04-06T07:46:35;3.00;99.90
17146;DHT22;8688;54.444;18.444;2023-04-06T07:49:02;3.10;79.40
17146;DHT22;8688;54.444;18.444;2023-04-06T07:51:30;3.10;11.40
17146;DHT22;8688;54.444;18.444;2023-04-06T07:53:57;3.10;1.00
17146;DHT22;8688;54.444;18.444;2023-04-06T07:56:29;3.20;1.00
17146;DHT22;8688;54.444;18.444;2023-04-06T07:58:57;3.20;67.30
17146;DHT22;8688;54.444;18.444;2023-04-06T08:01:24;3.10;99.90
17146;DHT22;8688;54.444;18.444;2023-04-06T08:03:52;3.10;99.90
17146;DHT22;8688;54.444;18.444;2023-04-06T08:06:24;3.10;99.90
17146;DHT22;8688;54.444;18.444;2023-04-06T08:11:59;3.30;99.90
17146;DHT22;8688;54.444;18.444;2023-04-06T08:14:26;3.40;99.90
17146;DHT22;8688;54.444;18.444;2023-04-06T08:17:15;3.50;99.90
17146;DHT22;8688;54.444;18.444;2023-04-06T08:20:06;3.50;99.90
17146;DHT22;8688;54.444;18.444;2023-04-06T08:22:33;3.50;99.90
17146;DHT22;8688;54.444;18.444;2023-04-06T08:25:01;3.50;85.20
17146;DHT22;8688;54.444;18.444;2023-04-06T08:27:29;3.60;59.00
17146;DHT22;8688;54.444;18.444;2023-04-06T08:29:57;3.70;35.50
17146;DHT22;8688;54.444;18.444;2023-04-06T08:32:25;3.80;61.40
17146;DHT22;8688;54.444;18.444;2023-04-06T08:34:53;4.00;1.00
17146;DHT22;8688;54.444;18.444;2023-04-06T08:37:21;4.10;1.00
17146;DHT22;8688;54.444;18.444;2023-04-06T08:39:49;4.40;1.00
17146;DHT22;8688;54.444;18.444;2023-04-06T08:45:23;4.80;1.00
17146;DHT22;8688;54.444;18.444;2023-04-06T08:47:51;4.60;1.00
17146;DHT22;8688;54.444;18.444;2023-04-06T08:50:19;4.40;1.00
17146;DHT22;8688;54.444;18.444;2023-04-06T08:52:48;4.30;1.00
17146;DHT22;8688;54.444;18.444;2023-04-06T08:55:15;4.30;1.00
17146;DHT22;8688;54.444;18.444;2023-04-06T08:57:43;4.30;1.00
17146;DHT22;8688;54.444;18.444;2023-04-06T09:00:13;4.20;1.00
17146;DHT22;8688;54.444;18.444;2023-04-06T09:02:43;4.20;1.00
17146;DHT22;8688;54.444;18.444;2023-04-06T09:05:12;4.10;1.00
17146;DHT22;8688;54.444;18.444;2023-04-06T09:07:40;3.90;1.00
17146;DHT22;8688;54.444;18.444;2023-04-06T09:10:08;3.90;1.00
17146;DHT22;8688;54.444;18.444;2023-04-06T09:12:35;3.90;1.00
17146;DHT22;8688;54.444;18.444;2023-04-06T09:15:03;3.90;1.00
17146;DHT22;8688;54.444;18.444;2023-04-06T09:17:32;3.60;1.00
17146;DHT22;8688;54.444;18.444;2023-04-06T09:20:02;3.70;1.00
17146;DHT22;8688;54.444;18.444;2023-04-06T09:22:40;4.10;1.00
17146;DHT22;8688;54.444;18.444;2023-04-06T09:25:09;4.20;1.00
17146;DHT22;8688;54.444;18.444;2023-04-06T09:27:37;4.10;99.90
17146;DHT22;8688;54.444;18.444;2023-04-06T09:30:07;4.00;99.90
17146;DHT22;8688;54.444;18.444;2023-04-06T09:32:45;3.90;99.90
17146;DHT22;8688;54.444;18.444;2023-04-06T09:35:15;3.80;99.90
17146;DHT22;8688;54.444;18.444;2023-04-06T09:37:42;3.80;99.90
17146;DHT22;8688;54.444;18.444;2023-04-06T09:40:12;3.70;99.90
17146;DHT22;8688;54.444;18.444;2023-04-06T09:42:41;3.70;99.90
17146;DHT22;8688;54.444;18.444;2023-04-06T09:45:09;3.70;99.90
17146;DHT22;8688;54.444;18.444;2023-04-06T09:47:37;3.70;99.90
17146;DHT22;8688;54.444;18.444;2023-04-06T09:50:08;3.90;99.90
17146;DHT22;8688;54.444;18.444;2023-04-06T09:53:12;4.10;99.90
17146;DHT22;8688;54.444;18.444;2023-04-06T09:55:55;4.30;99.90
17146;DHT22;8688;54.444;18.444;2023-04-06T09:58:25;4.30;99.90
17146;DHT22;8688;54.444;18.444;2023-04-06T10:01:01;4.30;99.90
17146;DHT22;8688;54.444;18.444;2023-04-06T10:03:32;4.20;99.90
17146;DHT22;8688;54.444;18.444;2023-04-06T10:06:05;4.20;99.90
17146;DHT22;8688;54.444;18.444;2023-04-06T10:08:39;4.40;1.00
17146;DHT22;8688;54.444;18.444;2023-04-06T10:11:10;4.40;1.00
17146;DHT22;8688;54.444;18.444;2023-04-06T10:17:31;4.80;1.00
17146;DHT22;8688;54.444;18.444;2023-04-06T10:23:09;4.80;99.90
17146;DHT22;8688;54.444;18.444;2023-04-06T10:25:56;4.70;99.90
17146;DHT22;8688;54.444;18.444;2023-04-06T10:28:25;4.70;99.90
17146;DHT22;8688;54.444;18.444;2023-04-06T10:30:57;4.60;99.90
17146;DHT22;8688;54.444;18.444;2023-04-06T10:40:19;4.80;99.90
17146;DHT22;8688;54.444;18.444;2023-04-06T10:53:20;5.10;99.90
17146;DHT22;8688;54.444;18.444;2023-04-06T10:56:15;5.00;99.90
17146;DHT22;8688;54.444;18.444;2023-04-06T10:59:21;5.00;99.90
17146;DHT22;8688;54.444;18.444;2023-04-06T11:02:27;4.80;99.90
17146;DHT22;8688;54.444;18.444;2023-04-06T11:08:27;4.90;99.90
17146;DHT22;8688;54.444;18.444;2023-04-06T11:11:14;5.00;99.90
17146;DHT22;8688;54.444;18.444;2023-04-06T11:13:57;5.10;99.90
17146;DHT22;8688;54.444;18.444;2023-04-06T11:17:09;5.20;99.90
17146;DHT22;8688;54.444;18.444;2023-04-06T11:20:22;5.20;99.90
17146;DHT22;8688;54.444;18.444;2023-04-06T11:40:07;4.80;99.90
17146;DHT22;8688;54.444;18.444;2023-04-06T11:43:29;4.90;99.90
17146;DHT22;8688;54.444;18.444;2023-04-06T11:53:00;4.90;99.90
17146;DHT22;8688;54.444;18.444;2023-04-06T12:02:16;4.70;99.90
17146;DHT22;8688;54.444;18.444;2023-04-06T12:08:33;4.80;99.90
17146;DHT22;8688;54.444;18.444;2023-04-06T12:14:26;5.10;99.90
17146;DHT22;8688;54.444;18.444;2023-04-06T12:17:20;5.10;99.90
17146;DHT22;8688;54.444;18.444;2023-04-06T12:27:14;5.30;99.90
17146;DHT22;8688;54.444;18.444;2023-04-06T12:37:08;5.00;99.90
17146;DHT22;8688;54.444;18.444;2023-04-06T12:40:14;5.10;99.90
17146;DHT22;8688;54.444;18.444;2023-04-06T12:46:33;5.50;99.90
17146;DHT22;8688;54.444;18.444;2023-04-06T12:52:56;5.50;90.00
17146;DHT22;8688;54.444;18.444;2023-04-06T13:09:32;5.40;99.90
17146;DHT22;8688;54.444;18.444;2023-04-06T13:12:23;5.20;99.90
17146;DHT22;8688;54.444;18.444;2023-04-06T13:15:11;5.10;99.90
17146;DHT22;8688;54.444;18.444;2023-04-06T13:18:17;5.10;99.90
17146;DHT22;8688;54.444;18.444;2023-04-06T13:21:03;5.10;78.00
17146;DHT22;8688;54.444;18.444;2023-04-06T13:23:59;5.30;96.90
17146;DHT22;8688;54.444;18.444;2023-04-06T13:26:32;5.50;99.90
17146;DHT22;8688;54.444;18.444;2023-04-06T13:28:59;5.50;98.50
17146;DHT22;8688;54.444;18.444;2023-04-06T13:31:28;5.40;69.20
17146;DHT22;8688;54.444;18.444;2023-04-06T13:34:08;5.50;54.20
17146;DHT22;8688;54.444;18.444;2023-04-06T13:36:41;5.50;35.60
17146;DHT22;8688;54.444;18.444;2023-04-06T13:39:09;5.40;8.80
17146;DHT22;8688;54.444;18.444;2023-04-06T13:41:41;5.40;23.80
17146;DHT22;8688;54.444;18.444;2023-04-06T13:44:38;5.30;35.80
17146;DHT22;8688;54.444;18.444;2023-04-06T13:47:08;5.20;38.10
17146;DHT22;8688;54.444;18.444;2023-04-06T13:49:42;5.00;39.70
17146;DHT22;8688;54.444;18.444;2023-04-06T13:52:15;5.00;38.10
17146;DHT22;8688;54.444;18.444;2023-04-06T13:54:54;4.90;21.80
17146;DHT22;8688;54.444;18.444;2023-04-06T13:57:38;4.90;47.40
17146;DHT22;8688;54.444;18.444;2023-04-06T14:00:12;4.90;39.50
17146;DHT22;8688;54.444;18.444;2023-04-06T14:02:40;4.70;56.30
17146;DHT22;8688;54.444;18.444;2023-04-06T14:05:09;4.60;60.30
17146;DHT22;8688;54.444;18.444;2023-04-06T14:07:37;4.50;61.80
17146;DHT22;8688;54.444;18.444;2023-04-06T14:10:05;4.50;43.50
17146;DHT22;8688;54.444;18.444;2023-04-06T14:12:56;4.60;90.80
17146;DHT22;8688;54.444;18.444;2023-04-06T14:15:41;4.50;91.20
17146;DHT22;8688;54.444;18.444;2023-04-06T14:18:17;4.30;96.80
17146;DHT22;8688;54.444;18.444;2023-04-06T14:27:12;4.20;99.90
17146;DHT22;8688;54.444;18.444;2023-04-06T14:29:41;4.20;99.90
17146;DHT22;8688;54.444;18.444;2023-04-06T14:32:26;4.30;99.90
17146;DHT22;8688;54.444;18.444;2023-04-06T14:34:54;4.30;99.90
17146;DHT22;8688;54.444;18.444;2023-04-06T14:37:33;4.30;99.90
17146;DHT22;8688;54.444;18.444;2023-04-06T14:40:01;4.30;99.90
17146;DHT22;8688;54.444;18.444;2023-04-06T14:42:43;4.30;99.90
17146;DHT22;8688;54.444;18.444;2023-04-06T14:45:19;4.10;99.90
17146;DHT22;8688;54.444;18.444;2023-04-06T14:47:47;4.10;99.90
17146;DHT22;8688;54.444;18.444;2023-04-06T14:54:03;3.90;99.90
17146;DHT22;8688;54.444;18.444;2023-04-06T14:56:46;3.90;99.90
17146;DHT22;8688;54.444;18.444;2023-04-06T14:59:41;3.80;99.90
17146;DHT22;8688;54.444;18.444;2023-04-06T15:02:12;3.70;99.90
17146;DHT22;8688;54.444;18.444;2023-04-06T15:04:49;3.60;99.90
17146;DHT22;8688;54.444;18.444;2023-04-06T15:07:16;3.50;99.90
17146;DHT22;8688;54.444;18.444;2023-04-06T15:09:56;3.50;99.90
17146;DHT22;8688;54.444;18.444;2023-04-06T15:12:42;3.40;1.00
17146;DHT22;8688;54.444;18.444;2023-04-06T15:15:30;3.40;1.00
17146;DHT22;8688;54.444;18.444;2023-04-06T15:18:17;3.30;1.00
17146;DHT22;8688;54.444;18.444;2023-04-06T15:21:11;3.30;1.00
17146;DHT22;8688;54.444;18.444;2023-04-06T15:23:45;3.30;1.00
17146;DHT22;8688;54.444;18.444;2023-04-06T15:26:37;3.20;1.00
17146;DHT22;8688;54.444;18.444;2023-04-06T15:29:07;3.20;1.00
17146;DHT22;8688;54.444;18.444;2023-04-06T15:31:35;3.20;1.00
17146;DHT22;8688;54.444;18.444;2023-04-06T15:34:11;3.20;1.00
17146;DHT22;8688;54.444;18.444;2023-04-06T15:39:40;3.10;1.00
17146;DHT22;8688;54.444;18.444;2023-04-06T15:42:11;3.10;1.00
17146;DHT22;8688;54.444;18.444;2023-04-06T15:44:38;3.00;1.00
17146;DHT22;8688;54.444;18.444;2023-04-06T15:47:06;2.90;1.00
17146;DHT22;8688;54.444;18.444;2023-04-06T15:49:47;2.80;1.00
17146;DHT22;8688;54.444;18.444;2023-04-06T15:52:31;2.80;1.00
17146;DHT22;8688;54.444;18.444;2023-04-06T15:54:59;2.90;1.00
17146;DHT22;8688;54.444;18.444;2023-04-06T15:57:41;2.90;1.00
17146;DHT22;8688;54.444;18.444;2023-04-06T16:00:40;2.90;1.00
17146;DHT22;8688;54.444;18.444;2023-04-06T16:06:11;2.90;1.00
17146;DHT22;8688;54.444;18.444;2023-04-06T16:08:44;2.90;1.00
17146;DHT22;8688;54.444;18.444;2023-04-06T16:11:39;2.90;1.00
17146;DHT22;8688;54.444;18.444;2023-04-06T16:14:09;2.80;1.00
17146;DHT22;8688;54.444;18.444;2023-04-06T16:16:37;2.80;1.00
17146;DHT22;8688;54.444;18.444;2023-04-06T16:19:04;2.80;1.00
17146;DHT22;8688;54.444;18.444;2023-04-06T16:21:36;2.80;1.00
17146;DHT22;8688;54.444;18.444;2023-04-06T16:37:59;2.70;99.90
17146;DHT22;8688;54.444;18.444;2023-04-06T16:41:15;2.60;99.90
17146;DHT22;8688;54.444;18.444;2023-04-06T16:47:10;2.60;1.00
17146;DHT22;8688;54.444;18.444;2023-04-06T16:49:38;2.70;1.00
17146;DHT22;8688;54.444;18.444;2023-04-06T16:52:06;2.70;1.00
17146;DHT22;8688;54.444;18.444;2023-04-06T16:54:35;2.70;1.00
17146;DHT22;8688;54.444;18.444;2023-04-06T16:57:02;2.80;1.00
17146;DHT22;8688;54.444;18.444;2023-04-06T16:59:30;2.70;1.00
17146;DHT22;8688;54.444;18.444;2023-04-06T17:01:58;2.70;1.00
17146;DHT22;8688;54.444;18.444;2023-04-06T17:04:26;2.70;1.00
17146;DHT22;8688;54.444;18.444;2023-04-06T17:06:53;2.60;1.00
17146;DHT22;8688;54.444;18.444;2023-04-06T17:09:20;2.60;1.00
17146;DHT22;8688;54.444;18.444;2023-04-06T17:11:50;2.60;1.00
17146;DHT22;8688;54.444;18.444;2023-04-06T17:14:17;2.60;1.00
17146;DHT22;8688;54.444;18.444;2023-04-06T17:16:45;2.70;1.00
17146;DHT22;8688;54.444;18.444;2023-04-06T17:19:12;2.60;1.00
17146;DHT22;8688;54.444;18.444;2023-04-06T17:21:40;2.60;1.00
17146;DHT22;8688;54.444;18.444;2023-04-06T17:24:08;2.60;1.00
17146;DHT22;8688;54.444;18.444;2023-04-06T17:26:35;2.60;1.00
17146;DHT22;8688;54.444;18.444;2023-04-06T17:29:04;2.60;1.00
17146;DHT22;8688;54.444;18.444;2023-04-06T17:31:32;2.60;1.00
17146;DHT22;8688;54.444;18.444;2023-04-06T17:33:59;2.60;1.00
17146;DHT22;8688;54.444;18.444;2023-04-06T17:36:27;2.60;1.00
17146;DHT22;8688;54.444;18.444;2023-04-06T17:38:54;2.60;1.00
17146;DHT22;8688;54.444;18.444;2023-04-06T17:41:22;2.60;1.00
17146;DHT22;8688;54.444;18.444;2023-04-06T17:43:49;2.50;1.00
17146;DHT22;8688;54.444;18.444;2023-04-06T17:46:18;2.50;1.00
17146;DHT22;8688;54.444;18.444;2023-04-06T17:48:46;2.50;1.00
17146;DHT22;8688;54.444;18.444;2023-04-06T17:51:14;2.50;1.00
17146;DHT22;8688;54.444;18.444;2023-04-06T17:53:44;2.50;1.00
17146;DHT22;8688;54.444;18.444;2023-04-06T17:56:11;2.50;1.00
17146;DHT22;8688;54.444;18.444;2023-04-06T17:58:39;2.50;1.00
17146;DHT22;8688;54.444;18.444;2023-04-06T18:01:07;2.50;1.00
17146;DHT22;8688;54.444;18.444;2023-04-06T18:03:37;2.50;1.00
17146;DHT22;8688;54.444;18.444;2023-04-06T18:06:09;2.50;1.00
17146;DHT22;8688;54.444;18.444;2023-04-06T18:08:36;2.50;1.00
17146;DHT22;8688;54.444;18.444;2023-04-06T18:11:04;2.50;1.00
17146;DHT22;8688;54.444;18.444;2023-04-06T18:13:31;2.50;1.00
17146;DHT22;8688;54.444;18.444;2023-04-06T18:16:00;2.50;1.00
17146;DHT22;8688;54.444;18.444;2023-04-06T18:18:27;2.50;1.00
17146;DHT22;8688;54.444;18.444;2023-04-06T18:20:56;2.40;1.00
17146;DHT22;8688;54.444;18.444;2023-04-06T18:23:24;2.40;1.00
17146;DHT22;8688;54.444;18.444;2023-04-06T18:25:51;2.40;1.00
17146;DHT22;8688;54.444;18.444;2023-04-06T18:28:20;2.40;1.00
17146;DHT22;8688;54.444;18.444;2023-04-06T18:30:48;2.40;1.00
17146;DHT22;8688;54.444;18.444;2023-04-06T18:33:15;2.40;1.00
17146;DHT22;8688;54.444;18.444;2023-04-06T18:35:42;2.40;1.00
17146;DHT22;8688;54.444;18.444;2023-04-06T18:38:11;2.40;1.00
17146;DHT22;8688;54.444;18.444;2023-04-06T18:40:39;2.40;1.00
17146;DHT22;8688;54.444;18.444;2023-04-06T18:43:07;2.40;1.00
17146;DHT22;8688;54.444;18.444;2023-04-06T18:45:36;2.40;1.00
17146;DHT22;8688;54.444;18.444;2023-04-06T18:48:05;2.40;1.00